Time;durP1;ratioP1;P1;durP2;ratioP2;P2;SDS_P1;SDS_P2;PMS_P1;PMS_P2;Temp;Humidity;BMP_temperature;BMP_pressure;BME280_temperature;BME280_humidity;BME280_pressure;Samples;Min_cycle;Max_cycle;Signal;HPM_P1;HPM_P2
2020/12/06 00:01:30;;;;;;;28.70;22.97;;;4.40;99.90;;;;;;4964775;28;20216;-66
2020/12/06 00:03:55;;;;;;;27.80;22.77;;;4.40;99.90;;;;;;4950141;28;20468;-66
2020/12/06 00:06:21;;;;;;;26.47;21.17;;;4.30;99.90;;;;;;4957670;28;20487;-66
2020/12/06 00:08:49;;;;;;;26.40;20.90;;;4.30;99.90;;;;;;4953840;28;20273;-66
2020/12/06 00:11:16;;;;;;;24.90;21.57;;;4.30;99.90;;;;;;4964531;28;20264;-66
2020/12/06 00:13:42;;;;;;;28.03;21.90;;;4.30;99.90;;;;;;4955703;28;20454;-66
2020/12/06 00:16:12;;;;;;;25.13;20.70;;;4.30;99.90;;;;;;4960776;28;20454;-66
2020/12/06 00:18:38;;;;;;;28.30;22.10;;;4.30;99.90;;;;;;4967095;28;20483;-66
2020/12/06 00:21:04;;;;;;;31.50;24.03;;;4.40;99.90;;;;;;4967761;28;20447;-66
2020/12/06 00:23:30;;;;;;;26.47;22.23;;;4.40;99.90;;;;;;4949617;28;20444;-66
2020/12/06 00:25:55;;;;;;;26.13;22.63;;;4.50;99.90;;;;;;4954386;28;20258;-66
2020/12/06 00:28:21;;;;;;;26.50;21.57;;;4.50;99.90;;;;;;4967413;28;20698;-66
2020/12/06 00:30:46;;;;;;;25.10;21.97;;;4.40;99.90;;;;;;4951458;28;20189;-66
2020/12/06 00:33:12;;;;;;;22.00;18.10;;;4.50;99.90;;;;;;4954379;28;20180;-66
2020/12/06 00:35:37;;;;;;;26.27;21.13;;;4.50;99.90;;;;;;4960393;28;20192;-67
2020/12/06 00:38:03;;;;;;;25.40;19.27;;;4.60;99.90;;;;;;4963339;28;20220;-66
2020/12/06 00:40:28;;;;;;;22.57;18.77;;;4.60;99.90;;;;;;4962665;28;20187;-66
2020/12/06 00:42:54;;;;;;;24.80;19.90;;;4.60;99.90;;;;;;4952178;28;20236;-66
2020/12/06 00:45:19;;;;;;;24.10;19.00;;;4.70;99.90;;;;;;4956756;28;20200;-66
2020/12/06 00:47:45;;;;;;;27.40;21.87;;;4.70;99.90;;;;;;4969517;28;20230;-66
2020/12/06 00:50:11;;;;;;;25.57;21.60;;;4.70;99.90;;;;;;4960943;28;20650;-67
2020/12/06 00:52:36;;;;;;;24.97;20.60;;;4.70;99.90;;;;;;4952553;28;20259;-67
2020/12/06 00:55:02;;;;;;;26.70;21.03;;;4.70;99.90;;;;;;4967543;28;20759;-66
2020/12/06 00:57:27;;;;;;;25.43;20.27;;;4.70;99.90;;;;;;4958628;28;20701;-66
2020/12/06 00:59:53;;;;;;;27.17;21.10;;;4.70;99.90;;;;;;4963043;28;20232;-67
2020/12/06 01:02:18;;;;;;;24.40;20.50;;;4.50;99.90;;;;;;4952436;28;20185;-66
2020/12/06 01:04:45;;;;;;;24.33;21.13;;;4.40;99.90;;;;;;4953406;28;20291;-66
2020/12/06 01:07:10;;;;;;;33.03;24.80;;;4.40;99.90;;;;;;4965623;28;20274;-66
2020/12/06 01:09:36;;;;;;;30.80;24.23;;;4.40;99.90;;;;;;4952029;28;20436;-66
2020/12/06 01:12:03;;;;;;;26.03;20.87;;;4.40;99.90;;;;;;4958565;28;20285;-66
2020/12/06 01:14:28;;;;;;;23.43;19.77;;;4.50;99.90;;;;;;4971384;28;20212;-65
2020/12/06 01:16:54;;;;;;;25.10;20.70;;;4.50;99.90;;;;;;4958307;28;20504;-66
2020/12/06 01:19:20;;;;;;;24.43;20.20;;;4.60;99.90;;;;;;4956129;28;20205;-66
2020/12/06 01:21:52;;;;;;;26.83;20.80;;;4.50;99.90;;;;;;4971344;28;20586;-66
2020/12/06 01:24:18;;;;;;;24.63;20.00;;;4.50;99.90;;;;;;4959580;28;20437;-66
2020/12/06 01:26:48;;;;;;;26.13;21.37;;;4.50;99.90;;;;;;4952443;28;20471;-66
2020/12/06 01:29:15;;;;;;;27.40;21.60;;;4.40;99.90;;;;;;4970011;28;20459;-66
2020/12/06 01:31:47;;;;;;;27.20;21.07;;;4.40;99.90;;;;;;4965068;28;20440;-66
2020/12/06 01:34:13;;;;;;;27.10;20.70;;;4.30;99.90;;;;;;4963811;28;20431;-66
2020/12/06 01:36:39;;;;;;;31.20;22.63;;;4.40;99.90;;;;;;4957396;28;20436;-66
2020/12/06 01:39:05;;;;;;;28.30;22.47;;;4.40;99.90;;;;;;4953373;28;20487;-66
2020/12/06 01:41:31;;;;;;;25.63;21.10;;;4.40;99.90;;;;;;4971370;28;20479;-66
2020/12/06 01:43:58;;;;;;;24.80;20.67;;;4.40;99.90;;;;;;4966211;28;20192;-66
2020/12/06 01:46:24;;;;;;;25.60;20.90;;;4.50;99.90;;;;;;4966963;28;20204;-66
2020/12/06 01:48:51;;;;;;;24.90;19.57;;;4.50;99.90;;;;;;4959509;28;20452;-66
2020/12/06 01:51:18;;;;;;;24.80;18.93;;;4.50;99.90;;;;;;4971073;28;20475;-66
2020/12/06 01:53:47;;;;;;;24.77;19.37;;;4.50;99.90;;;;;;4957684;28;20828;-66
2020/12/06 01:56:12;;;;;;;24.27;19.50;;;4.60;99.90;;;;;;4972650;28;20878;-66
2020/12/06 01:58:39;;;;;;;23.30;18.47;;;4.60;99.90;;;;;;4962380;28;20562;-66
2020/12/06 02:01:05;;;;;;;25.73;22.40;;;4.70;99.90;;;;;;4955173;28;20184;-66
2020/12/06 02:03:31;;;;;;;27.20;22.20;;;4.70;99.90;;;;;;4974044;28;20435;-66
2020/12/06 02:05:57;;;;;;;25.13;21.77;;;4.70;99.90;;;;;;4967582;28;20702;-66
2020/12/06 02:08:23;;;;;;;22.60;18.90;;;4.70;99.90;;;;;;4954653;28;20488;-66
2020/12/06 02:10:48;;;;;;;23.80;19.27;;;4.80;99.90;;;;;;4968082;28;20188;-66
2020/12/06 02:13:14;;;;;;;23.50;19.40;;;4.80;99.90;;;;;;4957722;28;20440;-66
2020/12/06 02:15:39;;;;;;;24.43;20.07;;;4.80;99.90;;;;;;4970077;28;20177;-66
2020/12/06 02:18:05;;;;;;;22.50;19.57;;;4.80;99.90;;;;;;4961304;28;20675;-68
2020/12/06 02:20:30;;;;;;;24.60;19.27;;;4.80;99.90;;;;;;4973985;28;20242;-68
2020/12/06 02:22:56;;;;;;;25.10;19.83;;;4.80;99.90;;;;;;4960462;28;20200;-68
2020/12/06 02:25:22;;;;;;;21.50;18.40;;;4.80;99.90;;;;;;4969888;28;20224;-68
2020/12/06 02:27:47;;;;;;;21.77;17.80;;;4.70;99.90;;;;;;4959639;28;20192;-68
2020/12/06 02:30:13;;;;;;;24.13;19.17;;;4.70;99.90;;;;;;4966166;28;20181;-68
2020/12/06 02:32:38;;;;;;;25.67;19.63;;;4.70;99.90;;;;;;4954697;28;20173;-68
2020/12/06 02:35:04;;;;;;;22.33;18.43;;;4.70;99.90;;;;;;4968754;28;20184;-66
2020/12/06 02:37:31;;;;;;;26.00;19.63;;;4.60;99.90;;;;;;4971698;28;20204;-66
2020/12/06 02:39:56;;;;;;;26.80;19.97;;;4.70;99.90;;;;;;4954333;28;20957;-66
2020/12/06 02:42:23;;;;;;;24.63;18.83;;;4.70;99.90;;;;;;4963788;28;20431;-66
2020/12/06 02:44:48;;;;;;;22.43;16.97;;;4.70;99.90;;;;;;4973456;28;20201;-66
2020/12/06 02:47:14;;;;;;;26.33;19.20;;;4.70;99.90;;;;;;4959573;28;20508;-67
2020/12/06 02:49:39;;;;;;;23.07;18.77;;;4.70;99.90;;;;;;4958376;28;20830;-66
2020/12/06 02:52:06;;;;;;;24.07;17.10;;;4.70;99.90;;;;;;4973377;28;20176;-66
2020/12/06 02:54:33;;;;;;;21.73;17.70;;;4.60;99.90;;;;;;4961998;28;20671;-67
2020/12/06 02:56:58;;;;;;;25.13;18.30;;;4.60;99.90;;;;;;4969326;28;20458;-66
2020/12/06 02:59:24;;;;;;;23.73;18.20;;;4.60;99.90;;;;;;4955890;28;20432;-66
2020/12/06 03:01:49;;;;;;;25.87;19.60;;;4.60;99.90;;;;;;4959310;28;20211;-68
2020/12/06 03:04:15;;;;;;;23.73;18.60;;;4.50;99.90;;;;;;4973132;28;20176;-68
2020/12/06 03:06:40;;;;;;;21.70;18.27;;;4.50;99.90;;;;;;4961465;28;20212;-68
2020/12/06 03:09:06;;;;;;;23.90;18.87;;;4.50;99.90;;;;;;4968402;28;20242;-68
2020/12/06 03:11:31;;;;;;;26.03;19.40;;;4.50;99.90;;;;;;4956164;28;20202;-68
2020/12/06 03:13:57;;;;;;;25.23;19.03;;;4.40;99.90;;;;;;4967576;28;20208;-68
2020/12/06 03:16:24;;;;;;;28.30;20.30;;;4.50;99.90;;;;;;4962405;28;20234;-68
2020/12/06 03:18:49;;;;;;;26.83;20.83;;;4.40;99.90;;;;;;4967757;28;20262;-68
2020/12/06 03:21:15;;;;;;;25.30;18.30;;;4.40;99.90;;;;;;4972861;28;20792;-68
2020/12/06 03:23:41;;;;;;;28.83;22.77;;;4.30;99.90;;;;;;4954189;28;20177;-68
2020/12/06 03:26:06;;;;;;;31.60;21.70;;;4.40;99.90;;;;;;4960397;28;20208;-68
2020/12/06 03:28:32;;;;;;;30.73;22.37;;;4.40;99.90;;;;;;4972279;28;20200;-68
2020/12/06 03:30:57;;;;;;;31.70;20.27;;;4.30;99.90;;;;;;4960268;28;20219;-68
2020/12/06 03:33:23;;;;;;;25.70;19.60;;;4.30;99.90;;;;;;4953546;28;20189;-69
2020/12/06 03:35:48;;;;;;;30.93;20.50;;;4.30;99.90;;;;;;4954504;28;20181;-68
2020/12/06 03:38:14;;;;;;;29.57;20.80;;;4.30;99.90;;;;;;4959056;28;20215;-68
2020/12/06 03:40:39;;;;;;;33.63;24.93;;;4.30;99.90;;;;;;4960318;28;20216;-68
2020/12/06 03:43:05;;;;;;;29.93;20.13;;;4.30;99.90;;;;;;4966144;28;20215;-68
2020/12/06 03:45:30;;;;;;;30.10;22.47;;;4.30;99.90;;;;;;4972286;28;20258;-68
2020/12/06 03:47:56;;;;;;;33.13;21.70;;;4.40;99.90;;;;;;4955881;28;20192;-67
2020/12/06 03:50:22;;;;;;;28.30;20.80;;;4.20;99.90;;;;;;4971241;28;20176;-68
2020/12/06 03:52:48;;;;;;;30.17;21.70;;;4.20;99.90;;;;;;4972495;28;20172;-68
2020/12/06 03:55:14;;;;;;;29.43;20.63;;;4.20;99.90;;;;;;4954948;28;20440;-68
2020/12/06 03:57:39;;;;;;;35.83;23.23;;;4.20;99.90;;;;;;4968497;28;20204;-68
2020/12/06 04:00:05;;;;;;;37.70;23.70;;;4.10;99.90;;;;;;4969208;28;20220;-68
2020/12/06 04:02:30;;;;;;;36.17;23.67;;;4.00;99.90;;;;;;4953157;28;20196;-68
2020/12/06 04:04:56;;;;;;;29.27;22.20;;;4.00;99.90;;;;;;4967865;28;20208;-68
2020/12/06 04:07:21;;;;;;;33.63;24.33;;;4.00;99.90;;;;;;4970257;28;20209;-68
2020/12/06 04:09:47;;;;;;;36.83;23.70;;;4.00;99.90;;;;;;4971645;28;20173;-68
2020/12/06 04:12:12;;;;;;;32.83;22.83;;;4.00;99.90;;;;;;4963307;28;20646;-68
2020/12/06 04:14:38;;;;;;;29.17;20.70;;;4.00;99.90;;;;;;4953174;28;20191;-68
2020/12/06 04:17:04;;;;;;;35.93;24.57;;;4.10;99.90;;;;;;4967934;28;20642;-68
2020/12/06 04:19:29;;;;;;;31.43;21.70;;;4.10;99.90;;;;;;4968800;28;20267;-68
2020/12/06 04:21:55;;;;;;;37.47;23.00;;;4.10;99.90;;;;;;4960347;28;20177;-68
2020/12/06 04:24:21;;;;;;;34.57;23.33;;;4.10;99.90;;;;;;4962716;28;20726;-68
2020/12/06 04:26:46;;;;;;;40.87;26.30;;;4.00;99.90;;;;;;4952649;28;20555;-68
2020/12/06 04:29:12;;;;;;;34.20;22.40;;;4.00;99.90;;;;;;4968219;28;20265;-68
2020/12/06 04:31:37;;;;;;;37.10;23.70;;;4.00;99.90;;;;;;4968802;28;20173;-68
2020/12/06 04:34:03;;;;;;;49.17;23.37;;;4.00;99.90;;;;;;4959073;28;20649;-68
2020/12/06 04:36:29;;;;;;;50.27;26.60;;;4.00;99.90;;;;;;4958819;28;20184;-68
2020/12/06 04:38:54;;;;;;;38.07;23.70;;;4.10;99.90;;;;;;4964531;28;20302;-69
2020/12/06 04:41:25;;;;;;;71.57;26.03;;;4.00;99.90;;;;;;4971061;28;20255;-68
2020/12/06 04:43:51;;;;;;;153.20;33.00;;;4.10;99.90;;;;;;4952603;28;20188;-68
2020/12/06 04:46:18;;;;;;;99.27;28.50;;;4.00;99.90;;;;;;4959643;28;20829;-68
2020/12/06 04:49:05;;;;;;;118.80;29.03;;;4.00;99.90;;;;;;4958290;28;20244;-68
2020/12/06 04:51:44;;;;;;;51.33;25.83;;;4.00;99.90;;;;;;4970355;28;20486;-68
2020/12/06 04:54:10;;;;;;;142.03;31.73;;;4.00;99.90;;;;;;4961396;28;20431;-69
2020/12/06 04:56:38;;;;;;;68.40;27.20;;;4.00;99.90;;;;;;4959293;28;20531;-68
2020/12/06 04:59:04;;;;;;;99.77;27.60;;;4.00;99.90;;;;;;4953053;28;20440;-68
2020/12/06 05:01:34;;;;;;;195.60;33.40;;;4.00;99.90;;;;;;4967865;28;20846;-68
2020/12/06 05:04:10;;;;;;;84.83;29.30;;;4.10;99.90;;;;;;4952305;28;20569;-67
2020/12/06 05:06:40;;;;;;;70.87;28.90;;;4.10;99.90;;;;;;4963601;28;20471;-67
2020/12/06 05:09:14;;;;;;;205.43;36.30;;;4.10;99.90;;;;;;4954740;28;20488;-67
2020/12/06 05:11:41;;;;;;;96.87;27.80;;;4.10;99.90;;;;;;4964049;28;20432;-66
2020/12/06 05:14:07;;;;;;;215.83;34.20;;;4.10;99.90;;;;;;4963025;28;20474;-67
2020/12/06 05:16:37;;;;;;;77.27;29.07;;;4.10;99.90;;;;;;4957066;28;20467;-67
2020/12/06 05:19:03;;;;;;;74.37;26.77;;;4.10;99.90;;;;;;4970782;23;20609;-69
2020/12/06 05:21:37;;;;;;;118.87;30.77;;;4.00;99.90;;;;;;4961281;28;20518;-68
2020/12/06 05:24:03;;;;;;;155.77;31.77;;;4.10;99.90;;;;;;4974789;28;20424;-69
2020/12/06 05:26:29;;;;;;;173.30;33.50;;;4.10;99.90;;;;;;4961691;28;20494;-69
2020/12/06 05:28:56;;;;;;;284.00;38.30;;;4.00;99.90;;;;;;4954452;28;20199;-69
2020/12/06 05:31:22;;;;;;;146.17;32.93;;;4.00;99.90;;;;;;4955359;28;20460;-69
2020/12/06 05:33:48;;;;;;;86.87;27.87;;;3.90;99.90;;;;;;4955445;28;20490;-69
2020/12/06 05:36:15;;;;;;;109.27;32.37;;;3.80;99.90;;;;;;4955396;28;20559;-69
2020/12/06 05:38:40;;;;;;;173.07;34.17;;;3.80;99.90;;;;;;4954232;28;20456;-69
2020/12/06 05:41:07;;;;;;;149.70;33.13;;;3.80;99.90;;;;;;4955359;29;20440;-69
2020/12/06 05:43:33;;;;;;;172.13;37.13;;;3.90;99.90;;;;;;4955390;28;20181;-69
2020/12/06 05:46:10;;;;;;;46.07;26.03;;;3.90;99.90;;;;;;4955040;28;20551;-69
2020/12/06 05:48:36;;;;;;;49.03;27.40;;;3.90;99.90;;;;;;4954210;28;20459;-69
2020/12/06 05:51:03;;;;;;;52.13;30.10;;;3.90;99.90;;;;;;4955316;28;20523;-69
2020/12/06 05:53:30;;;;;;;50.30;28.97;;;3.90;99.90;;;;;;4955122;28;20443;-69
2020/12/06 05:56:13;;;;;;;39.30;23.17;;;3.90;99.90;;;;;;4954833;28;20446;-69
2020/12/06 05:58:44;;;;;;;39.57;25.60;;;4.00;99.90;;;;;;4954428;28;21004;-69
2020/12/06 06:01:16;;;;;;;41.00;25.50;;;3.90;99.90;;;;;;4955420;28;20440;-69
2020/12/06 06:03:46;;;;;;;42.97;28.23;;;3.80;99.90;;;;;;4955063;28;20444;-69
2020/12/06 06:06:24;;;;;;;44.23;23.37;;;3.80;99.90;;;;;;4954549;28;21131;-69
2020/12/06 06:08:53;;;;;;;36.90;22.97;;;3.80;99.90;;;;;;4954057;28;20461;-68
2020/12/06 06:11:29;;;;;;;42.60;24.50;;;3.90;99.90;;;;;;4954929;28;20511;-69
2020/12/06 06:13:57;;;;;;;39.47;23.60;;;3.80;99.90;;;;;;4954718;28;20448;-69
2020/12/06 06:16:25;;;;;;;36.93;23.20;;;3.80;99.90;;;;;;4954658;28;20531;-69
2020/12/06 06:18:52;;;;;;;41.90;24.37;;;3.90;99.90;;;;;;4938759;29;20884;-69
2020/12/06 06:21:24;;;;;;;40.97;24.97;;;3.90;99.90;;;;;;4954433;28;20455;-69
2020/12/06 06:23:52;;;;;;;47.10;25.70;;;3.90;99.90;;;;;;4954574;28;20519;-69
2020/12/06 06:26:19;;;;;;;50.73;25.33;;;3.90;99.90;;;;;;4954316;28;20563;-68
2020/12/06 06:28:45;;;;;;;41.87;24.20;;;3.90;99.90;;;;;;4953475;28;20884;-68
2020/12/06 06:31:14;;;;;;;47.07;24.17;;;3.90;99.90;;;;;;4954520;28;20519;-69
2020/12/06 06:33:39;;;;;;;43.13;24.43;;;3.90;99.90;;;;;;4954354;28;20455;-69
2020/12/06 06:36:09;;;;;;;45.40;24.03;;;3.80;99.90;;;;;;4954286;28;20445;-69
2020/12/06 06:38:44;;;;;;;42.70;22.30;;;3.80;99.90;;;;;;4953256;28;20217;-69
2020/12/06 06:41:10;;;;;;;42.63;23.77;;;3.70;99.90;;;;;;4954226;28;20443;-69
2020/12/06 06:43:39;;;;;;;46.73;24.50;;;3.80;99.90;;;;;;4950704;29;20444;-69
2020/12/06 06:46:16;;;;;;;46.93;26.40;;;3.80;99.90;;;;;;4954034;28;20472;-69
2020/12/06 06:48:47;;;;;;;43.47;21.63;;;3.80;99.90;;;;;;4952383;29;20894;-69
2020/12/06 06:51:23;;;;;;;44.43;21.00;;;3.90;99.90;;;;;;4954030;29;21001;-69
2020/12/06 06:53:50;;;;;;;45.17;23.60;;;3.90;99.90;;;;;;4953871;28;20432;-69
2020/12/06 06:56:19;;;;;;;48.67;25.70;;;3.80;99.90;;;;;;4953939;28;20467;-69
2020/12/06 06:58:49;;;;;;;51.63;24.63;;;3.80;99.90;;;;;;4952855;28;21185;-69
2020/12/06 07:01:23;;;;;;;43.20;23.13;;;3.90;99.90;;;;;;4953931;28;20817;-69
2020/12/06 07:03:54;;;;;;;48.83;23.67;;;3.90;99.90;;;;;;4953608;28;20468;-69
2020/12/06 07:06:47;;;;;;;46.70;22.67;;;3.90;99.90;;;;;;4953836;28;20480;-69
2020/12/06 07:09:15;;;;;;;51.47;23.50;;;3.90;99.90;;;;;;4952894;29;20459;-69
2020/12/06 07:11:41;;;;;;;64.97;22.60;;;3.90;99.90;;;;;;4953632;28;20436;-69
2020/12/06 07:14:08;;;;;;;47.50;22.30;;;3.90;99.90;;;;;;4953473;28;20436;-69
2020/12/06 07:16:34;;;;;;;65.23;24.30;;;3.80;99.90;;;;;;4953768;28;20444;-69
2020/12/06 07:19:00;;;;;;;48.83;20.50;;;3.80;99.90;;;;;;4952478;28;20527;-69
2020/12/06 07:21:35;;;;;;;42.33;21.03;;;3.80;99.90;;;;;;4953206;28;21302;-69
2020/12/06 07:24:01;;;;;;;58.40;21.97;;;3.80;99.90;;;;;;4953241;28;20536;-69
2020/12/06 07:26:27;;;;;;;49.63;22.03;;;3.90;99.90;;;;;;4953302;28;20472;-69
2020/12/06 07:28:54;;;;;;;51.23;22.70;;;3.90;99.90;;;;;;4952628;28;20849;-69
2020/12/06 07:31:20;;;;;;;56.33;23.47;;;3.90;99.90;;;;;;4953422;28;20440;-70
2020/12/06 07:33:45;;;;;;;61.83;25.47;;;3.90;99.90;;;;;;4953157;29;20444;-69
2020/12/06 07:36:11;;;;;;;57.10;21.83;;;3.80;99.90;;;;;;4953028;29;20189;-69
2020/12/06 07:38:37;;;;;;;55.77;23.03;;;3.80;99.90;;;;;;4952503;28;20209;-69
2020/12/06 07:41:03;;;;;;;51.37;20.17;;;3.90;99.90;;;;;;4952339;28;20461;-69
2020/12/06 07:43:30;;;;;;;52.63;21.90;;;4.00;99.90;;;;;;4953190;28;20188;-69
2020/12/06 07:45:56;;;;;;;56.27;19.97;;;3.90;99.90;;;;;;4952848;28;20860;-69
2020/12/06 07:48:22;;;;;;;76.47;19.27;;;4.00;99.90;;;;;;4951889;28;20542;-69
2020/12/06 07:50:48;;;;;;;51.70;20.10;;;3.90;99.90;;;;;;4952854;28;20216;-69
2020/12/06 07:53:14;;;;;;;61.17;21.53;;;3.90;99.90;;;;;;4952805;29;20484;-69
2020/12/06 07:55:41;;;;;;;51.67;21.90;;;4.00;99.90;;;;;;4952624;28;20721;-69
2020/12/06 07:58:14;;;;;;;62.00;23.07;;;4.00;99.90;;;;;;4951725;28;20205;-69
2020/12/06 08:00:40;;;;;;;61.47;22.00;;;4.00;99.90;;;;;;4951747;29;20810;-69
2020/12/06 08:03:07;;;;;;;54.53;19.13;;;3.90;99.90;;;;;;4952540;28;20445;-69
2020/12/06 08:05:39;;;;;;;67.40;21.27;;;3.80;99.90;;;;;;4952224;28;20881;-69
2020/12/06 08:08:14;;;;;;;56.40;19.07;;;3.70;99.90;;;;;;4951097;28;20469;-69
2020/12/06 08:10:41;;;;;;;54.53;22.80;;;3.70;99.90;;;;;;4937338;29;20439;-69
2020/12/06 08:13:11;;;;;;;52.70;21.70;;;3.70;99.90;;;;;;4952504;28;20440;-69
2020/12/06 08:15:37;;;;;;;50.40;20.33;;;3.70;99.90;;;;;;4952697;28;20445;-69
2020/12/06 08:18:11;;;;;;;54.37;21.43;;;3.70;99.90;;;;;;4951082;29;20992;-69
2020/12/06 08:20:36;;;;;;;38.40;17.80;;;3.80;99.90;;;;;;4952173;28;20798;-69
2020/12/06 08:23:02;;;;;;;37.27;17.30;;;3.80;99.90;;;;;;4952177;29;20451;-68
2020/12/06 08:25:31;;;;;;;36.30;17.97;;;3.90;99.90;;;;;;4952626;29;20217;-69
2020/12/06 08:28:01;;;;;;;36.83;16.90;;;3.90;99.90;;;;;;4951277;29;20205;-69
2020/12/06 08:30:28;;;;;;;37.60;16.23;;;4.00;99.90;;;;;;4951801;28;20436;-69
2020/12/06 08:33:05;;;;;;;33.30;16.63;;;3.90;99.90;;;;;;4951934;28;20443;-69
2020/12/06 08:35:48;;;;;;;30.33;16.43;;;3.90;99.90;;;;;;4952273;29;20484;-69
2020/12/06 08:38:22;;;;;;;30.33;17.60;;;4.10;99.90;;;;;;4951547;28;20600;-69
2020/12/06 08:40:59;;;;;;;34.97;17.50;;;4.10;99.90;;;;;;4952047;29;20527;-69
2020/12/06 08:43:39;;;;;;;30.90;15.73;;;4.10;99.90;;;;;;4952357;28;21000;-69
2020/12/06 08:46:09;;;;;;;28.17;16.50;;;4.10;99.90;;;;;;4951920;28;20833;-69
2020/12/06 08:48:35;;;;;;;31.80;16.13;;;4.20;99.90;;;;;;4951213;28;20467;-69
2020/12/06 08:51:03;;;;;;;34.60;17.20;;;4.20;99.90;;;;;;4952189;28;20824;-69
2020/12/06 08:53:45;;;;;;;32.00;17.27;;;4.30;99.90;;;;;;4956069;28;20216;-70
2020/12/06 08:56:26;;;;;;;33.60;17.67;;;4.40;99.90;;;;;;4955860;28;20455;-70
2020/12/06 08:58:52;;;;;;;33.00;17.23;;;4.40;99.90;;;;;;4955213;29;20579;-70
2020/12/06 09:01:18;;;;;;;27.40;15.80;;;4.50;99.90;;;;;;4955974;28;20527;-70
2020/12/06 09:03:43;;;;;;;20.27;12.47;;;4.60;99.90;;;;;;4953112;29;20188;-70
2020/12/06 09:06:16;;;;;;;26.97;15.23;;;4.80;99.90;;;;;;4953515;29;20205;-69
2020/12/06 09:08:42;;;;;;;25.33;14.63;;;4.80;99.90;;;;;;4944977;28;20538;-69
2020/12/06 09:11:21;;;;;;;26.47;14.67;;;4.80;99.90;;;;;;4952453;28;20498;-69
2020/12/06 09:13:47;;;;;;;25.70;15.03;;;4.90;99.90;;;;;;4938009;29;20185;-69
2020/12/06 09:16:13;;;;;;;23.90;13.80;;;5.00;99.90;;;;;;4953027;28;20519;-69
2020/12/06 09:18:40;;;;;;;25.03;14.27;;;5.10;99.90;;;;;;4951665;28;20563;-69
2020/12/06 09:21:06;;;;;;;18.83;11.87;;;4.90;99.90;;;;;;4952659;28;20801;-69
2020/12/06 09:23:32;;;;;;;20.37;12.43;;;4.90;99.90;;;;;;4952254;28;20440;-69
2020/12/06 09:26:00;;;;;;;18.70;11.27;;;4.90;99.90;;;;;;4951870;29;20842;-69
2020/12/06 09:28:25;;;;;;;18.60;11.87;;;5.00;99.90;;;;;;4951176;28;20559;-70
2020/12/06 09:30:51;;;;;;;19.83;11.83;;;4.90;99.90;;;;;;4951073;29;20951;-69
2020/12/06 09:33:16;;;;;;;19.40;10.83;;;5.00;99.90;;;;;;4952623;29;20284;-68
2020/12/06 09:35:42;;;;;;;19.73;11.47;;;5.10;99.90;;;;;;4951884;29;20220;-69
2020/12/06 09:38:07;;;;;;;18.40;11.23;;;5.10;99.90;;;;;;4951266;29;20212;-68
2020/12/06 09:40:33;;;;;;;21.47;11.83;;;4.90;99.90;;;;;;4952231;29;20272;-70
2020/12/06 09:42:59;;;;;;;22.47;11.90;;;4.80;99.90;;;;;;4952136;29;20870;-71
2020/12/06 09:45:24;;;;;;;22.53;12.07;;;4.70;99.90;;;;;;4952076;29;20212;-71
2020/12/06 09:47:50;;;;;;;20.17;11.30;;;4.70;99.90;;;;;;4951517;29;20212;-70
2020/12/06 09:50:16;;;;;;;20.27;11.00;;;4.70;99.90;;;;;;4951875;29;20638;-70
2020/12/06 09:52:42;;;;;;;17.97;11.50;;;4.80;99.90;;;;;;4952061;29;20197;-70
2020/12/06 09:55:07;;;;;;;14.97;9.60;;;4.80;99.90;;;;;;4952103;28;20760;-70
2020/12/06 09:57:33;;;;;;;20.40;11.60;;;4.90;99.90;;;;;;4950763;29;20678;-70
2020/12/06 09:59:58;;;;;;;17.07;11.43;;;4.80;99.90;;;;;;4951133;29;20185;-71
2020/12/06 10:02:24;;;;;;;17.33;11.20;;;4.80;99.90;;;;;;4951736;29;20690;-70
2020/12/06 10:04:49;;;;;;;17.47;10.83;;;4.80;99.90;;;;;;4950493;28;20227;-70
2020/12/06 10:07:15;;;;;;;21.33;12.10;;;4.80;99.90;;;;;;4951529;29;20199;-70
2020/12/06 10:09:40;;;;;;;19.43;11.57;;;5.00;99.90;;;;;;4950316;29;20208;-70
2020/12/06 10:12:06;;;;;;;19.17;9.83;;;5.00;99.90;;;;;;4951286;29;20177;-70
2020/12/06 10:14:32;;;;;;;16.30;10.70;;;5.00;99.90;;;;;;4951517;29;20240;-70
2020/12/06 10:16:57;;;;;;;15.67;9.60;;;5.00;99.90;;;;;;4951020;29;20326;-70
2020/12/06 10:19:23;;;;;;;13.87;9.67;;;5.00;99.90;;;;;;4950297;29;20204;-70
2020/12/06 10:21:48;;;;;;;12.13;9.47;;;5.00;99.90;;;;;;4951149;29;20271;-70
2020/12/06 10:24:14;;;;;;;16.60;10.17;;;5.00;99.90;;;;;;4951416;29;20284;-70
2020/12/06 10:26:39;;;;;;;15.53;10.40;;;4.90;99.90;;;;;;4942655;29;20236;-71
2020/12/06 10:29:04;;;;;;;14.57;11.90;;;4.90;99.90;;;;;;4944118;29;20267;-71
2020/12/06 10:31:30;;;;;;;13.23;10.20;;;4.90;99.90;;;;;;4943014;29;20646;-71
2020/12/06 10:33:56;;;;;;;15.07;10.77;;;4.80;99.90;;;;;;4944148;29;20175;-70
2020/12/06 10:36:21;;;;;;;16.30;10.57;;;4.80;99.90;;;;;;4943611;29;20185;-71
2020/12/06 10:38:47;;;;;;;13.17;9.33;;;4.80;99.90;;;;;;4950061;29;20572;-71
2020/12/06 10:41:12;;;;;;;14.00;10.30;;;4.80;99.90;;;;;;4951633;29;20197;-71
2020/12/06 10:43:38;;;;;;;11.70;9.50;;;4.80;99.90;;;;;;4950817;29;20193;-70
2020/12/06 10:46:03;;;;;;;14.70;10.77;;;4.80;99.90;;;;;;4951507;28;20212;-70
2020/12/06 10:48:29;;;;;;;11.33;9.80;;;4.90;99.90;;;;;;4949771;29;20204;-70
2020/12/06 10:50:54;;;;;;;14.50;11.83;;;5.00;99.90;;;;;;4950709;29;20184;-70
2020/12/06 10:53:20;;;;;;;9.47;7.57;;;5.10;99.90;;;;;;4950949;29;20216;-70
2020/12/06 10:55:45;;;;;;;8.37;7.27;;;5.20;99.90;;;;;;4950436;29;20189;-70
2020/12/06 10:58:11;;;;;;;7.90;7.10;;;5.20;99.90;;;;;;4950278;29;20201;-67
2020/12/06 11:00:37;;;;;;;10.13;7.60;;;5.20;99.90;;;;;;4950408;28;20192;-70
2020/12/06 11:03:03;;;;;;;17.40;8.63;;;5.30;99.90;;;;;;4950460;28;20283;-70
2020/12/06 11:05:29;;;;;;;10.73;9.30;;;5.20;99.90;;;;;;4961357;28;20468;-69
2020/12/06 11:07:54;;;;;;;8.53;7.37;;;5.10;99.90;;;;;;4950025;29;20646;-70
2020/12/06 11:10:20;;;;;;;8.90;6.63;;;5.10;99.90;;;;;;4950493;29;20181;-69
2020/12/06 11:12:45;;;;;;;10.60;9.40;;;5.10;99.90;;;;;;4931805;29;20233;-68
2020/12/06 11:15:11;;;;;;;10.23;9.17;;;5.20;99.90;;;;;;4946176;28;20220;-69
2020/12/06 11:17:36;;;;;;;8.43;7.43;;;5.30;99.90;;;;;;4950413;29;20630;-68
2020/12/06 11:20:04;;;;;;;8.47;7.67;;;5.50;99.90;;;;;;4950348;29;20189;-69
2020/12/06 11:22:29;;;;;;;7.47;6.80;;;5.60;99.90;;;;;;4950159;28;20184;-70
2020/12/06 11:24:55;;;;;;;8.47;7.60;;;5.70;99.90;;;;;;4950177;29;20958;-70
2020/12/06 11:27:20;;;;;;;8.50;7.57;;;5.80;99.90;;;;;;4949724;29;20575;-69
2020/12/06 11:29:46;;;;;;;9.60;8.60;;;5.70;99.90;;;;;;4950011;29;20178;-70
2020/12/06 11:32:12;;;;;;;8.57;7.37;;;5.60;99.90;;;;;;4950136;28;20185;-70
2020/12/06 11:34:37;;;;;;;8.50;7.63;;;5.50;99.90;;;;;;4949692;29;20879;-68
2020/12/06 11:37:03;;;;;;;10.40;8.67;;;5.40;99.90;;;;;;4950049;29;20196;-69
2020/12/06 11:39:29;;;;;;;12.70;9.00;;;5.30;99.90;;;;;;4949352;29;20646;-68
2020/12/06 11:41:55;;;;;;;9.70;8.70;;;5.30;99.90;;;;;;4950418;29;20223;-68
2020/12/06 11:44:21;;;;;;;9.87;8.63;;;5.40;99.90;;;;;;4949826;29;20191;-67
2020/12/06 11:46:47;;;;;;;9.50;8.00;;;5.50;99.90;;;;;;4949968;29;20475;-67
2020/12/06 11:49:13;;;;;;;15.63;10.00;;;5.50;99.90;;;;;;4949434;29;20235;-67
2020/12/06 11:51:38;;;;;;;10.60;9.50;;;5.50;99.90;;;;;;4950337;28;20212;-67
2020/12/06 11:54:04;;;;;;;10.77;8.93;;;5.50;99.90;;;;;;4950135;29;20472;-67
2020/12/06 11:56:30;;;;;;;10.23;7.73;;;5.60;99.90;;;;;;4949174;28;20718;-67
2020/12/06 11:58:56;;;;;;;9.57;8.57;;;5.70;99.90;;;;;;4949363;28;20456;-67
2020/12/06 12:01:21;;;;;;;11.03;8.47;;;5.70;99.90;;;;;;4949511;29;20203;-67
2020/12/06 12:03:47;;;;;;;11.63;9.37;;;5.70;99.90;;;;;;4949595;29;20236;-67
2020/12/06 12:06:12;;;;;;;14.50;9.30;;;5.80;99.90;;;;;;4949660;28;20220;-67
2020/12/06 12:08:38;;;;;;;10.40;8.87;;;5.90;99.90;;;;;;4948959;29;20209;-67
2020/12/06 12:11:09;;;;;;;9.50;8.60;;;6.00;99.90;;;;;;4949309;29;20200;-67
2020/12/06 12:13:36;;;;;;;11.77;9.87;;;6.00;99.90;;;;;;4949154;28;20181;-67
2020/12/06 12:16:02;;;;;;;15.90;11.37;;;6.00;99.90;;;;;;4949329;28;20440;-67
2020/12/06 12:18:28;;;;;;;12.93;11.50;;;6.00;99.90;;;;;;4948882;28;20856;-68
2020/12/06 12:20:53;;;;;;;10.13;9.07;;;6.00;99.90;;;;;;4949645;29;20448;-67
2020/12/06 12:23:19;;;;;;;10.23;9.23;;;6.00;99.90;;;;;;4949689;29;20201;-67
2020/12/06 12:25:45;;;;;;;12.90;8.57;;;6.10;99.90;;;;;;4948104;29;20208;-68
2020/12/06 12:28:11;;;;;;;14.10;10.40;;;6.10;99.90;;;;;;4950993;29;20256;-70
2020/12/06 12:30:36;;;;;;;9.50;7.10;;;6.10;99.90;;;;;;4951716;28;20177;-68
2020/12/06 12:33:02;;;;;;;7.60;6.87;;;6.10;99.90;;;;;;4951692;29;20895;-69
2020/12/06 12:35:28;;;;;;;8.83;6.87;;;6.10;99.90;;;;;;4951874;29;20607;-68
2020/12/06 12:37:55;;;;;;;7.27;6.43;;;6.00;99.90;;;;;;4951859;29;20733;-70